Time;durP1;ratioP1;P1;durP2;ratioP2;P2;SDS_P1;SDS_P2;PMS_P1;PMS_P2;Temp;Humidity;BMP_temperature;BMP_pressure;BME280_temperature;BME280_humidity;BME280_pressure;Samples;Min_cycle;Max_cycle;Signal;HPM_P1;HPM_P2
2022/02/26 00:01:41;;;;;;;;;21.50;15.00;;;;;6.99;61.34;103009.00;5101282;27;45281;-63
2022/02/26 00:04:07;;;;;;;;;23.00;15.75;;;;;6.98;61.31;103012.50;5101533;27;45323;-62
2022/02/26 00:06:33;;;;;;;;;16.50;9.75;;;;;7.00;61.46;103010.72;5101527;27;45251;-63
2022/02/26 00:08:59;;;;;;;;;19.25;15.25;;;;;6.99;61.34;103009.00;5100846;27;45640;-63
2022/02/26 00:11:24;;;;;;;;;15.00;11.00;;;;;6.99;61.49;103004.63;5101164;27;45243;-63
2022/02/26 00:13:50;;;;;;;;;24.75;16.00;;;;;6.97;60.87;103002.91;5101298;27;45311;-63
2022/02/26 00:16:15;;;;;;;;;22.75;16.25;;;;;6.97;61.59;103002.91;5101211;27;45580;-63
2022/02/26 00:18:41;;;;;;;;;19.50;12.25;;;;;7.00;61.46;103010.72;5101184;27;45246;-62
2022/02/26 00:21:07;;;;;;;;;21.75;15.25;;;;;6.99;61.14;103009.00;5101012;27;45175;-63
2022/02/26 00:23:33;;;;;;;;;14.50;11.50;;;;;7.02;61.40;103015.94;5101175;27;45418;-63
2022/02/26 00:25:58;;;;;;;;;15.75;14.50;;;;;7.04;61.34;103022.94;5101058;27;45294;-62
2022/02/26 00:28:24;;;;;;;;;17.50;15.00;;;;;7.04;61.30;103022.94;5100893;27;45321;-63
2022/02/26 00:30:50;;;;;;;;;21.50;15.25;;;;;7.04;61.19;103019.44;5101720;27;45487;-62
2022/02/26 00:33:15;;;;;;;;;13.25;11.75;;;;;7.01;61.66;103020.31;5104597;27;45322;-63
2022/02/26 00:35:41;;;;;;;;;16.00;14.75;;;;;7.02;61.10;103018.56;5091691;27;45284;-63
2022/02/26 00:38:07;;;;;;;;;19.25;14.00;;;;;6.98;61.41;103020.34;5083896;27;46176;-63
2022/02/26 00:40:33;;;;;;;;;16.25;12.75;;;;;6.94;61.54;103018.63;5089558;27;45252;-63
2022/02/26 00:42:59;;;;;;;;;25.00;16.00;;;;;6.93;61.63;103017.75;5098156;27;45265;-63
2022/02/26 00:45:25;;;;;;;;;23.00;14.00;;;;;6.92;61.94;103018.63;5084119;27;45232;-63
2022/02/26 00:47:50;;;;;;;;;23.25;15.75;;;;;6.92;61.37;103017.78;5083416;27;45227;-63
2022/02/26 00:50:16;;;;;;;;;16.25;11.25;;;;;6.90;61.25;103012.56;5083801;28;45239;-63
2022/02/26 00:52:42;;;;;;;;;16.50;14.00;;;;;6.86;61.93;103013.44;5083841;27;45244;-63
2022/02/26 00:55:09;;;;;;;;;21.50;12.25;;;;;6.85;61.51;103019.56;5083653;28;45378;-63
2022/02/26 00:57:34;;;;;;;;;17.00;10.75;;;;;6.84;61.77;103019.59;5083553;27;46050;-63
2022/02/26 01:00:01;;;;;;;;;24.75;14.75;;;;;6.84;61.30;103030.94;5083561;28;45307;-63
2022/02/26 01:02:26;;;;;;;;;16.00;16.00;;;;;6.83;61.38;103029.19;5083572;27;45324;-63
2022/02/26 01:04:53;;;;;;;;;15.75;14.00;;;;;6.82;61.91;103029.22;5083815;28;45616;-63
2022/02/26 01:07:18;;;;;;;;;20.00;14.00;;;;;6.79;61.46;103022.22;5083377;27;45445;-63
2022/02/26 01:09:44;;;;;;;;;17.75;14.00;;;;;6.77;62.34;103028.34;5083089;27;45323;-63
2022/02/26 01:12:10;;;;;;;;;15.50;10.00;;;;;6.74;62.09;103033.63;5083666;28;45175;-63
2022/02/26 01:14:37;;;;;;;;;21.75;13.50;;;;;6.71;61.64;103034.50;5083708;28;45161;-63
2022/02/26 01:17:05;;;;;;;;;16.50;12.25;;;;;6.70;62.02;103038.00;5090244;27;46327;-63
2022/02/26 01:19:30;;;;;;;;;17.75;13.75;;;;;6.66;62.40;103039.78;5103605;27;45319;-63
2022/02/26 01:21:56;;;;;;;;;22.75;14.25;;;;;6.66;62.02;103047.63;5085761;27;45323;-63
2022/02/26 01:24:22;;;;;;;;;20.00;15.25;;;;;6.64;62.33;103046.78;5103435;27;45522;-63
2022/02/26 01:26:48;;;;;;;;;23.50;14.50;;;;;6.62;61.83;103035.44;5103694;27;45300;-62
2022/02/26 01:29:13;;;;;;;;;17.75;11.50;;;;;6.60;61.86;103039.81;5103477;27;45172;-63
2022/02/26 01:31:39;;;;;;;;;20.50;12.25;;;;;6.56;61.87;103045.97;5103956;27;45171;-63
2022/02/26 01:34:05;;;;;;;;;22.00;15.00;;;;;6.55;62.66;103044.19;5103483;27;45469;-63
2022/02/26 01:36:32;;;;;;;;;18.50;14.75;;;;;6.54;62.24;103042.47;5083292;27;45233;-63
2022/02/26 01:38:59;;;;;;;;;15.50;10.75;;;;;6.52;62.10;103049.47;5085473;27;45274;-63
2022/02/26 01:41:28;;;;;;;;;11.50;11.00;;;;;6.51;63.01;103036.38;5093227;27;45375;-63
2022/02/26 01:43:56;;;;;;;;;31.00;15.25;;;;;6.50;62.57;103038.13;5089620;27;45234;-63
2022/02/26 01:46:23;;;;;;;;;21.25;14.75;;;;;6.48;63.06;103037.28;5082804;27;46240;-62
2022/02/26 01:48:48;;;;;;;;;13.75;9.25;;;;;6.46;62.76;103036.41;5082642;27;45307;-63
2022/02/26 01:51:14;;;;;;;;;21.25;16.25;;;;;6.43;63.21;103037.28;5083087;28;45365;-63
2022/02/26 01:53:39;;;;;;;;;14.75;13.25;;;;;6.42;62.72;103042.53;5082808;27;45334;-63
2022/02/26 01:56:07;;;;;;;;;22.75;18.00;;;;;6.34;62.69;103037.34;5082744;28;46050;-62
2022/02/26 01:58:33;;;;;;;;;20.50;16.75;;;;;6.31;62.43;103036.47;5082796;27;45172;-62
2022/02/26 02:00:59;;;;;;;;;16.25;14.75;;;;;6.31;63.07;103044.31;5082725;28;45470;-63
2022/02/26 02:03:24;;;;;;;;;19.00;15.75;;;;;6.29;63.49;103044.34;5082710;28;45398;-63
2022/02/26 02:05:50;;;;;;;;;21.75;14.00;;;;;6.30;62.68;103051.31;5082739;28;46130;-62
2022/02/26 02:08:16;;;;;;;;;23.25;18.25;;;;;6.28;62.55;103049.59;5082398;27;45280;-63
2022/02/26 02:10:42;;;;;;;;;18.00;17.50;;;;;6.25;63.14;103037.38;5082547;27;45204;-63
2022/02/26 02:13:08;;;;;;;;;18.00;13.25;;;;;6.22;63.05;103044.38;5082581;27;45332;-62
2022/02/26 02:15:39;;;;;;;;;18.75;13.75;;;;;6.21;63.58;103042.63;5082445;28;45419;-63
2022/02/26 02:18:07;;;;;;;;;22.50;16.75;;;;;6.18;63.77;103053.13;5082274;27;45264;-62
2022/02/26 02:20:33;;;;;;;;;21.00;16.50;;;;;6.18;63.11;103045.28;5082500;28;45366;-63
2022/02/26 02:22:58;;;;;;;;;16.25;16.00;;;;;6.15;62.84;103043.50;5082433;28;45671;-63
2022/02/26 02:25:27;;;;;;;;;23.25;18.00;;;;;6.14;62.98;103026.94;5081941;27;45576;-63
2022/02/26 02:27:54;;;;;;;;;24.00;18.25;;;;;6.15;63.17;103039.16;5082157;27;45359;-63
2022/02/26 02:30:20;;;;;;;;;20.25;16.75;;;;;6.15;62.88;103036.53;5082479;28;45295;-63
2022/02/26 02:32:45;;;;;;;;;21.00;14.75;;;;;6.17;63.19;103039.16;5063942;27;45414;-63
2022/02/26 02:35:26;;;;;;;;;14.75;10.75;;;;;6.17;63.15;103035.69;5090704;27;45378;-63
2022/02/26 02:37:51;;;;;;;;;18.00;17.00;;;;;6.15;63.50;103020.84;5082032;28;45360;-63
2022/02/26 02:40:17;;;;;;;;;26.25;19.25;;;;;6.17;63.62;103023.47;5085276;27;45340;-63
2022/02/26 02:42:42;;;;;;;;;23.00;19.75;;;;;6.14;63.71;103026.94;5098276;27;45274;-63
2022/02/26 02:45:08;;;;;;;;;26.50;20.25;;;;;6.15;63.83;103028.69;5081952;28;45258;-63
2022/02/26 02:47:34;;;;;;;;;26.50;22.25;;;;;6.12;63.85;103028.72;5081447;28;45177;-63
2022/02/26 02:49:59;;;;;;;;;29.25;22.00;;;;;6.09;63.29;103025.25;5082123;28;45375;-63
2022/02/26 02:52:25;;;;;;;;;27.00;18.75;;;;;6.11;63.65;103021.75;5082026;27;45536;-62
2022/02/26 02:54:50;;;;;;;;;23.50;19.75;;;;;6.12;63.77;103022.59;5081185;28;46220;-63
2022/02/26 02:57:18;;;;;;;;;22.50;19.25;;;;;6.14;63.49;103023.47;5068404;27;45303;-63
2022/02/26 02:59:44;;;;;;;;;25.50;22.00;;;;;6.11;63.60;103023.50;5102368;27;45331;-63
2022/02/26 03:02:09;;;;;;;;;26.00;21.50;;;;;6.09;63.63;103028.72;5102125;27;45365;-63
2022/02/26 03:04:35;;;;;;;;;30.75;24.00;;;;;6.07;63.83;103020.00;5102224;27;45398;-63
2022/02/26 03:07:00;;;;;;;;;29.50;20.00;;;;;6.04;64.01;103011.31;5101914;27;45240;-63
2022/02/26 03:09:26;;;;;;;;;29.00;19.00;;;;;6.05;63.56;103013.03;5102064;27;45378;-63
2022/02/26 03:11:51;;;;;;;;;26.25;19.25;;;;;6.01;63.82;103006.97;5102113;27;45323;-63
2022/02/26 03:14:17;;;;;;;;;22.75;16.25;;;;;5.96;64.26;103005.22;5102103;27;45302;-63
2022/02/26 03:16:42;;;;;;;;;22.00;18.00;;;;;5.94;63.89;103014.84;5101687;27;45336;-63
2022/02/26 03:19:08;;;;;;;;;22.50;21.25;;;;;5.92;64.20;103008.72;5102220;27;45274;-62
2022/02/26 03:21:34;;;;;;;;;30.75;21.25;;;;;5.86;63.72;103007.84;5101878;27;45690;-63
2022/02/26 03:24:00;;;;;;;;;25.00;23.75;;;;;5.86;64.63;103009.59;5101533;27;45456;-63
2022/02/26 03:26:25;;;;;;;;;27.50;22.75;;;;;5.83;64.47;103020.91;5101629;27;45287;-62
2022/02/26 03:28:51;;;;;;;;;31.50;26.00;;;;;5.82;64.34;103019.19;5101988;27;45222;-63
2022/02/26 03:31:16;;;;;;;;;32.00;20.50;;;;;5.82;64.71;103015.69;5101464;27;45586;-63
2022/02/26 03:33:42;;;;;;;;;26.00;24.50;;;;;5.80;64.33;103007.88;5101687;27;45282;-63
2022/02/26 03:36:07;;;;;;;;;32.00;22.50;;;;;5.81;64.51;103020.06;5083981;27;45246;-63
2022/02/26 03:38:33;;;;;;;;;25.75;21.00;;;;;5.79;64.71;103018.34;5081404;27;45335;-63
2022/02/26 03:40:58;;;;;;;;;23.25;22.75;;;;;5.76;64.84;103003.50;5089707;27;45488;-62
2022/02/26 03:43:23;;;;;;;;;30.25;20.75;;;;;5.74;64.31;103017.47;5091617;27;46094;-62
2022/02/26 03:45:49;;;;;;;;;34.25;22.00;;;;;5.72;65.04;103014.00;5080708;28;45330;-63
2022/02/26 03:48:15;;;;;;;;;32.75;23.00;;;;;5.69;64.48;103007.03;5081137;28;45505;-63
2022/02/26 03:50:41;;;;;;;;;21.50;20.00;;;;;5.65;65.17;103005.28;5081160;28;45342;-63
2022/02/26 03:53:08;;;;;;;;;23.25;18.00;;;;;5.66;65.59;103016.63;5080978;28;45547;-63
2022/02/26 03:55:34;;;;;;;;;28.75;23.75;;;;;5.58;65.42;103012.28;5080614;28;45242;-63
2022/02/26 03:58:00;;;;;;;;;30.25;22.00;;;;;5.58;64.52;103007.03;5081028;28;45224;-62
2022/02/26 04:00:26;;;;;;;;;27.25;21.75;;;;;5.62;64.80;103013.16;5081053;28;45424;-62
2022/02/26 04:02:51;;;;;;;;;25.75;20.75;;;;;5.62;65.27;103010.53;5080886;28;45493;-63
2022/02/26 04:05:17;;;;;;;;;34.00;24.50;;;;;5.64;65.46;103021.00;5080939;27;45245;-63
2022/02/26 04:07:42;;;;;;;;;30.00;24.25;;;;;5.64;65.23;103019.25;5084811;27;45237;-63
2022/02/26 04:10:09;;;;;;;;;26.25;21.25;;;;;5.63;65.17;103016.63;5084394;27;45916;-63
2022/02/26 04:12:35;;;;;;;;;34.75;23.75;;;;;5.62;65.26;103015.75;5084552;28;45459;-63
2022/02/26 04:15:00;;;;;;;;;35.75;24.50;;;;;5.61;65.06;103027.09;5084302;27;45364;-63
2022/02/26 04:17:26;;;;;;;;;25.25;22.00;;;;;5.62;65.63;103031.44;5084566;28;45307;-63
2022/02/26 04:19:51;;;;;;;;;34.00;26.00;;;;;5.60;65.24;103038.41;5084368;27;45308;-63
2022/02/26 04:22:17;;;;;;;;;31.75;23.75;;;;;5.54;64.90;103027.97;5084414;27;45337;-63
2022/02/26 04:24:43;;;;;;;;;27.25;22.75;;;;;5.52;65.99;103029.69;5083948;27;45301;-63
2022/02/26 04:27:09;;;;;;;;;31.25;23.50;;;;;5.51;65.58;103041.91;5084271;28;45263;-63
2022/02/26 04:29:34;;;;;;;;;22.50;18.00;;;;;5.51;65.68;103038.41;5084193;27;45271;-63
2022/02/26 04:32:00;;;;;;;;;28.50;25.25;;;;;5.50;65.08;103034.94;5084133;28;45802;-63
2022/02/26 04:34:25;;;;;;;;;30.75;28.50;;;;;5.52;65.80;103033.19;5092316;27;45322;-63
2022/02/26 04:36:50;;;;;;;;;17.00;16.75;;;;;5.52;65.68;103041.03;5084262;28;45241;-62
2022/02/26 04:39:16;;;;;;;;;27.75;22.00;;;;;5.52;65.32;103035.81;5086079;27;45228;-62
2022/02/26 04:41:42;;;;;;;;;32.25;25.25;;;;;5.53;65.34;103039.28;5096518;27;45414;-63
2022/02/26 04:44:07;;;;;;;;;25.00;21.25;;;;;5.52;65.75;103038.41;5088413;27;45477;-63
2022/02/26 04:46:32;;;;;;;;;35.50;17.75;;;;;5.52;65.56;103035.81;5074779;27;45290;-63
2022/02/26 04:48:58;;;;;;;;;33.50;22.75;;;;;5.54;65.30;103041.06;5088333;27;45499;-63
2022/02/26 04:51:24;;;;;;;;;33.50;22.00;;;;;5.52;65.05;103040.16;5083733;27;46273;-63
2022/02/26 04:53:49;;;;;;;;;30.50;25.75;;;;;5.46;65.49;103032.34;5083563;27;45330;-63
2022/02/26 04:56:15;;;;;;;;;27.50;24.50;;;;;5.46;64.95;103037.59;5083909;28;45314;-63
2022/02/26 04:58:40;;;;;;;;;30.00;24.00;;;;;5.45;65.92;103046.25;5084015;27;45281;-62
2022/02/26 05:01:06;;;;;;;;;30.00;22.00;;;;;5.43;65.75;103040.19;5083507;27;45305;-63
2022/02/26 05:03:32;;;;;;;;;18.75;17.25;;;;;5.41;65.11;103034.97;5083719;28;45458;-63
2022/02/26 05:05:57;;;;;;;;;16.50;14.50;;;;;5.37;65.81;103030.59;5083829;27;45284;-63
2022/02/26 05:08:23;;;;;;;;;28.50;19.75;;;;;5.37;64.86;103027.97;5083644;27;45492;-63
2022/02/26 05:10:49;;;;;;;;;30.75;21.25;;;;;5.35;65.90;103034.97;5083206;27;46512;-62
2022/02/26 05:13:14;;;;;;;;;27.25;21.25;;;;;5.31;65.13;103028.00;5083498;27;45423;-62
2022/02/26 05:15:40;;;;;;;;;27.25;21.00;;;;;5.26;65.40;103024.50;5083505;27;45161;-62
2022/02/26 05:18:06;;;;;;;;;34.00;24.00;;;;;5.26;65.42;103040.19;5083170;28;45570;-63
2022/02/26 05:20:32;;;;;;;;;33.00;21.75;;;;;5.23;65.74;103034.97;5083220;27;45289;-63
2022/02/26 05:22:58;;;;;;;;;27.75;22.00;;;;;5.22;65.66;103044.56;5083270;27;45441;-63
2022/02/26 05:25:23;;;;;;;;;23.50;21.50;;;;;5.18;65.73;103036.72;5083282;28;45292;-63
2022/02/26 05:27:49;;;;;;;;;20.50;17.50;;;;;5.18;66.05;103040.19;5083205;27;45506;-62
2022/02/26 05:30:15;;;;;;;;;26.75;22.00;;;;;5.12;65.63;103041.94;5083130;27;45412;-62
2022/02/26 05:32:42;;;;;;;;;30.00;23.00;;;;;5.10;65.68;103033.22;5082923;28;45395;-63
2022/02/26 05:35:08;;;;;;;;;25.00;23.25;;;;;5.09;66.46;103037.59;5090871;27;45343;-63
2022/02/26 05:37:33;;;;;;;;;25.00;20.00;;;;;5.08;66.51;103033.22;5083405;27;45477;-63
2022/02/26 05:39:59;;;;;;;;;31.50;24.75;;;;;5.06;66.25;103034.13;5084476;27;45288;-63
2022/02/26 05:42:24;;;;;;;;;25.50;23.00;;;;;5.01;66.26;103034.97;5100071;27;45149;-63
2022/02/26 05:44:50;;;;;;;;;24.50;21.75;;;;;4.97;66.16;103033.19;5083410;28;45347;-62
2022/02/26 05:47:16;;;;;;;;;28.75;21.50;;;;;4.95;66.13;103036.69;5082583;27;45237;-63
2022/02/26 05:49:41;;;;;;;;;26.25;22.50;;;;;4.91;66.72;103033.22;5082916;28;45348;-62
2022/02/26 05:52:07;;;;;;;;;29.25;22.00;;;;;4.87;66.10;103041.91;5083026;28;45212;-62
2022/02/26 05:54:35;;;;;;;;;30.25;22.00;;;;;4.83;66.42;103044.53;5082802;28;45291;-63
2022/02/26 05:57:01;;;;;;;;;27.00;20.50;;;;;4.79;66.27;103037.53;5083001;27;45253;-62
2022/02/26 05:59:26;;;;;;;;;24.75;18.50;;;;;4.75;66.60;103040.16;5082685;28;46246;-63
2022/02/26 06:01:52;;;;;;;;;29.25;22.50;;;;;4.75;66.44;103047.13;5082615;27;45303;-63
2022/02/26 06:04:17;;;;;;;;;32.50;20.00;;;;;4.75;66.69;103039.28;5082923;28;45421;-62
2022/02/26 06:06:43;;;;;;;;;27.00;21.50;;;;;4.75;66.65;103048.00;5082862;28;45361;-63
2022/02/26 06:09:08;;;;;;;;;27.75;19.50;;;;;4.80;66.15;103047.13;5082313;28;45447;-62
2022/02/26 06:11:34;;;;;;;;;31.75;20.75;;;;;4.83;66.10;103044.53;5082668;27;45142;-62
2022/02/26 06:13:59;;;;;;;;;29.50;21.75;;;;;4.85;66.42;103042.78;5082769;27;45363;-63
2022/02/26 06:16:25;;;;;;;;;27.75;21.00;;;;;4.87;67.09;103047.13;5082573;27;45251;-62
2022/02/26 06:18:50;;;;;;;;;26.50;22.50;;;;;4.88;67.18;103051.47;5082356;27;45227;-63
2022/02/26 06:21:16;;;;;;;;;25.50;18.50;;;;;4.87;67.07;103054.09;5082245;28;45225;-63
2022/02/26 06:23:41;;;;;;;;;23.75;19.25;;;;;4.88;66.47;103053.22;5082209;28;45320;-62
2022/02/26 06:26:07;;;;;;;;;34.00;20.75;;;;;4.87;66.36;103059.31;5082319;27;45223;-62
2022/02/26 06:28:32;;;;;;;;;28.00;20.00;;;;;4.87;66.29;103056.72;5081319;28;46021;-62
2022/02/26 06:30:58;;;;;;;;;28.50;21.75;;;;;4.87;66.53;103054.97;5081889;27;45328;-63
2022/02/26 06:33:23;;;;;;;;;32.50;24.00;;;;;4.87;66.29;103054.97;5084834;27;45433;-63
2022/02/26 06:35:49;;;;;;;;;32.50;23.00;;;;;4.84;66.37;103049.75;5087583;27;45286;-62
2022/02/26 06:38:15;;;;;;;;;31.25;19.50;;;;;4.86;66.17;103049.75;5082111;28;45345;-62
2022/02/26 06:40:40;;;;;;;;;26.25;20.25;;;;;4.87;66.15;103057.56;5087750;27;45409;-63
2022/02/26 06:43:06;;;;;;;;;18.75;18.75;;;;;4.88;65.90;103056.69;5095360;27;45301;-62
2022/02/26 06:45:32;;;;;;;;;28.00;24.75;;;;;4.87;66.65;103059.31;5082280;27;45355;-62
2022/02/26 06:47:58;;;;;;;;;31.00;17.50;;;;;4.88;66.16;103055.84;5081554;28;46178;-63
2022/02/26 06:50:23;;;;;;;;;30.25;22.50;;;;;4.90;67.00;103057.59;5080869;27;45518;-63
2022/02/26 06:52:49;;;;;;;;;31.25;23.25;;;;;4.90;67.04;103054.13;5077586;28;45549;-63
2022/02/26 06:55:15;;;;;;;;;29.25;23.50;;;;;4.93;66.39;103065.44;5081913;28;45255;-63
2022/02/26 06:57:41;;;;;;;;;35.75;26.25;;;;;4.93;66.14;103064.56;5081837;27;46135;-62
2022/02/26 07:00:08;;;;;;;;;34.75;24.75;;;;;4.96;66.36;103054.97;5081881;28;45275;-62
2022/02/26 07:02:34;;;;;;;;;27.75;21.00;;;;;4.98;66.04;103057.63;5082039;27;45434;-63
2022/02/26 07:05:00;;;;;;;;;27.25;23.50;;;;;5.00;66.72;103058.47;5081884;28;45562;-63
2022/02/26 07:07:26;;;;;;;;;28.00;21.75;;;;;5.02;66.00;103065.44;5081796;28;46097;-62
2022/02/26 07:09:52;;;;;;;;;35.25;23.75;;;;;5.01;66.10;103061.09;5081269;28;45335;-63
2022/02/26 07:12:17;;;;;;;;;26.25;22.00;;;;;5.02;66.55;103061.97;5082121;28;45377;-62
2022/02/26 07:14:44;;;;;;;;;26.00;21.25;;;;;5.06;65.90;103066.31;5081620;27;45332;-62
2022/02/26 07:17:10;;;;;;;;;28.00;27.00;;;;;5.10;66.11;103061.97;5081687;28;45348;-63
2022/02/26 07:19:36;;;;;;;;;36.00;25.00;;;;;5.14;65.82;103067.19;5081341;28;45317;-63
2022/02/26 07:22:02;;;;;;;;;28.75;25.75;;;;;5.17;65.76;103061.97;5082000;28;45221;-63
2022/02/26 07:24:27;;;;;;;;;29.50;25.00;;;;;5.21;66.38;103068.06;5081227;28;45499;-63
2022/02/26 07:26:53;;;;;;;;;35.25;23.25;;;;;5.24;65.72;103063.72;5081270;27;45567;-62
2022/02/26 07:29:18;;;;;;;;;25.25;22.75;;;;;5.29;65.81;103064.59;5081284;28;45355;-62
2022/02/26 07:31:44;;;;;;;;;33.50;27.00;;;;;5.33;66.41;103063.72;5081343;28;45268;-62
2022/02/26 07:34:09;;;;;;;;;28.00;21.00;;;;;5.38;65.96;103062.84;5090294;27;45496;-62
2022/02/26 07:36:35;;;;;;;;;29.25;22.00;;;;;5.42;65.69;103067.19;5088164;27;45247;-62
2022/02/26 07:39:01;;;;;;;;;33.00;19.25;;;;;5.48;65.61;103072.41;5072618;27;45344;-62
2022/02/26 07:41:27;;;;;;;;;26.00;23.50;;;;;5.53;65.69;103068.03;5091699;27;45306;-62
2022/02/26 07:43:52;;;;;;;;;25.25;20.75;;;;;5.56;65.18;103063.69;5087882;27;45308;-62
2022/02/26 07:46:18;;;;;;;;;27.25;21.50;;;;;5.59;64.94;103068.91;5081282;28;45275;-62
2022/02/26 07:48:43;;;;;;;;;26.25;24.00;;;;;5.63;65.01;103067.19;5080811;28;45497;-63
2022/02/26 07:51:09;;;;;;;;;28.75;22.75;;;;;5.66;65.38;103067.16;5081142;27;45238;-62
2022/02/26 07:53:34;;;;;;;;;8.50;1.00;;;;;5.70;64.96;103066.31;5081194;28;45254;-62
2022/02/26 07:56:00;;;;;;;;;27.50;21.75;;;;;5.76;65.36;103065.41;5080955;28;45367;-62
2022/02/26 07:58:25;;;;;;;;;27.00;20.75;;;;;5.79;65.15;103070.63;5081247;27;45265;-62
2022/02/26 08:00:51;;;;;;;;;21.75;17.50;;;;;5.83;64.54;103073.22;5081048;28;45369;-62
2022/02/26 08:03:16;;;;;;;;;28.25;18.50;;;;;5.91;64.71;103075.00;5081212;28;45271;-62
2022/02/26 08:05:42;;;;;;;;;23.00;13.75;;;;;5.96;64.93;103068.88;5080935;28;45355;-62
2022/02/26 08:08:07;;;;;;;;;23.00;21.00;;;;;6.02;64.79;103078.47;5080878;28;45459;-62
2022/02/26 08:10:34;;;;;;;;;24.75;19.00;;;;;6.11;64.77;103086.28;5080671;27;45309;-62
2022/02/26 08:12:59;;;;;;;;;27.75;21.00;;;;;6.18;63.70;103077.53;5080950;28;45350;-62
2022/02/26 08:15:27;;;;;;;;;26.50;20.50;;;;;6.27;63.73;103077.50;5080747;28;45438;-62
2022/02/26 08:17:52;;;;;;;;;24.75;17.50;;;;;6.36;63.44;103080.09;5080558;27;45252;-62
2022/02/26 08:20:22;;;;;;;;;15.75;13.00;;;;;6.44;63.81;103080.03;5081027;28;45330;-62
2022/02/26 08:22:48;;;;;;;;;18.75;15.25;;;;;6.52;63.08;103086.13;5080838;28;45522;-62
2022/02/26 08:25:13;;;;;;;;;17.25;17.25;;;;;6.59;63.60;103079.97;5080420;28;45284;-62
2022/02/26 08:27:39;;;;;;;;;21.25;16.00;;;;;6.67;63.12;103082.56;5080503;28;45335;-62
2022/02/26 08:30:07;;;;;;;;;23.75;19.25;;;;;6.76;63.55;103079.00;5080800;28;45344;-62
2022/02/26 08:32:32;;;;;;;;;20.00;18.00;;;;;6.85;63.03;103076.34;5080297;28;45351;-62
2022/02/26 08:34:58;;;;;;;;;27.50;18.75;;;;;6.90;62.33;103079.81;5088371;27;45325;-62
2022/02/26 08:37:23;;;;;;;;;18.00;15.25;;;;;6.96;62.24;103072.78;5080442;28;45301;-62
2022/02/26 08:39:49;;;;;;;;;18.50;14.00;;;;;7.03;62.68;103073.59;5082403;27;45377;-62
2022/02/26 08:42:14;;;;;;;;;17.75;15.25;;;;;7.08;62.28;103073.56;5095037;27;45519;-62
2022/02/26 08:44:40;;;;;;;;;13.25;9.00;;;;;7.09;61.46;103083.16;5100963;27;46238;-62
2022/02/26 08:47:07;;;;;;;;;18.75;13.00;;;;;7.13;62.23;103083.13;5100280;27;45268;-62
2022/02/26 08:49:33;;;;;;;;;15.25;14.25;;;;;7.17;61.96;103071.72;5101007;27;45272;-62
2022/02/26 08:51:59;;;;;;;;;14.25;11.00;;;;;7.24;61.58;103075.19;5102295;27;45339;-62
2022/02/26 08:54:24;;;;;;;;;20.25;14.75;;;;;7.30;61.27;103077.75;5104011;27;45247;-62
2022/02/26 08:56:50;;;;;;;;;17.25;14.00;;;;;7.38;61.36;103075.94;5104178;27;45373;-62
2022/02/26 08:59:16;;;;;;;;;17.50;15.25;;;;;7.48;61.37;103068.84;5104291;27;45495;-62
2022/02/26 09:01:42;;;;;;;;;10.50;10.50;;;;;7.56;61.14;103069.66;5104197;27;45419;-62
2022/02/26 09:04:08;;;;;;;;;14.75;13.75;;;;;7.62;60.91;103073.97;5104001;27;45341;-62
2022/02/26 09:06:34;;;;;;;;;14.25;11.00;;;;;7.67;60.91;103078.31;5103769;27;45267;-62
2022/02/26 09:09:00;;;;;;;;;17.25;13.50;;;;;7.71;60.76;103063.41;5104037;27;45210;-62
2022/02/26 09:11:26;;;;;;;;;24.25;16.75;;;;;7.79;60.78;103070.31;5103921;27;45363;-62
2022/02/26 09:13:52;;;;;;;;;16.75;14.00;;;;;7.81;60.66;103068.53;5104026;27;45268;-62
2022/02/26 09:16:17;;;;;;;;;12.50;11.75;;;;;7.84;60.07;103073.75;5103749;27;45177;-62
2022/02/26 09:18:43;;;;;;;;;9.50;9.50;;;;;7.93;59.87;103074.53;5104278;27;45269;-62
2022/02/26 09:21:09;;;;;;;;;11.75;9.50;;;;;7.99;59.65;103066.63;5103967;27;45334;-62
2022/02/26 09:23:37;;;;;;;;;11.00;11.00;;;;;8.03;59.74;103066.53;5103789;27;45393;-62
2022/02/26 09:26:04;;;;;;;;;11.00;10.75;;;;;8.10;59.63;103065.59;5103575;27;45336;-62
2022/02/26 09:28:35;;;;;;;;;15.75;9.50;;;;;8.17;58.93;103065.53;5103656;27;45250;-62
2022/02/26 09:31:02;;;;;;;;;10.00;8.25;;;;;8.19;58.73;103061.97;5103666;27;45529;-63
2022/02/26 09:33:30;;;;;;;;;11.25;7.00;;;;;8.23;58.29;103050.56;5103714;27;46386;-62
2022/02/26 09:35:57;;;;;;;;;13.00;6.00;;;;;8.24;58.34;103054.06;5088253;27;45248;-62
2022/02/26 09:38:23;;;;;;;;;10.75;8.50;;;;;8.27;58.55;103056.63;5083022;28;45307;-62
2022/02/26 09:40:49;;;;;;;;;15.25;8.25;;;;;8.30;58.34;103056.63;5090471;27;45347;-62
2022/02/26 09:43:14;;;;;;;;;7.50;7.50;;;;;8.36;57.97;103046.91;5095208;27;45300;-62
2022/02/26 09:45:39;;;;;;;;;17.25;6.75;;;;;8.41;57.76;103044.25;5082764;27;45312;-62
2022/02/26 09:48:05;;;;;;;;;7.25;6.50;;;;;8.45;57.42;103040.66;5083100;27;45324;-62
2022/02/26 09:50:31;;;;;;;;;12.25;8.00;;;;;8.54;57.74;103042.31;5083008;28;45533;-62
2022/02/26 09:52:57;;;;;;;;;9.25;6.25;;;;;8.59;56.98;103041.34;5083133;27;45314;-62
2022/02/26 09:55:23;;;;;;;;;7.50;7.25;;;;;8.66;57.16;103045.63;5082505;27;45316;-62
2022/02/26 09:57:49;;;;;;;;;12.00;7.25;;;;;8.70;56.73;103038.59;5083199;28;45391;-62
2022/02/26 10:00:15;;;;;;;;;6.75;6.00;;;;;8.72;56.38;103041.19;5082836;28;45612;-62
2022/02/26 10:02:47;;;;;;;;;9.00;8.00;;;;;8.75;56.29;103041.13;5082158;28;45300;-62
2022/02/26 10:05:12;;;;;;;;;6.75;5.25;;;;;8.80;56.26;103036.69;5081977;27;45435;-62
2022/02/26 10:07:42;;;;;;;;;10.00;5.50;;;;;8.86;56.16;103036.59;5082809;28;45615;-63
2022/02/26 10:10:19;;;;;;;;;4.00;3.00;;;;;8.90;55.87;103033.00;5082667;27;45242;-63
2022/02/26 10:12:51;;;;;;;;;12.75;6.25;;;;;8.93;55.36;103036.47;5082633;28;45980;-62
2022/02/26 10:15:38;;;;;;;;;7.50;5.75;;;;;9.01;54.95;103030.25;5082506;28;45434;-62
2022/02/26 10:18:07;;;;;;;;;6.75;3.75;;;;;9.06;54.48;103025.75;5082509;28;45382;-63
2022/02/26 10:20:34;;;;;;;;;11.25;5.50;;;;;9.09;54.56;103029.22;5082671;28;45536;-63
2022/02/26 10:23:00;;;;;;;;;9.00;5.25;;;;;9.16;54.34;103020.34;5082235;27;46314;-63
2022/02/26 10:25:28;;;;;;;;;6.00;5.00;;;;;9.21;53.92;103020.25;5082341;27;45290;-62
2022/02/26 10:27:57;;;;;;;;;8.50;6.75;;;;;9.26;53.70;103023.66;5082355;27;45284;-63
2022/02/26 10:30:28;;;;;;;;;7.00;6.00;;;;;9.30;53.96;103019.22;5082766;28;45331;-62
2022/02/26 10:33:09;;;;;;;;;6.00;4.50;;;;;9.35;53.51;103020.00;5099189;27;45425;-62
2022/02/26 10:35:42;;;;;;;;;15.50;7.50;;;;;9.37;53.45;103007.69;5080903;28;45369;-63
2022/02/26 10:38:19;;;;;;;;;6.75;5.00;;;;;9.40;53.61;103011.16;5082107;27;45330;-63
2022/02/26 10:40:54;;;;;;;;;5.75;5.00;;;;;9.42;53.27;103021.63;5071056;27;45441;-62
2022/02/26 10:44:01;;;;;;;;;9.75;5.50;;;;;9.45;53.50;103011.91;5102497;27;45377;-63
2022/02/26 10:46:32;;;;;;;;;7.75;6.00;;;;;9.45;53.07;103004.03;5102416;27;45297;-62
2022/02/26 10:49:01;;;;;;;;;10.25;6.00;;;;;9.51;52.46;103010.94;5102214;27;45322;-62
2022/02/26 10:51:35;;;;;;;;;7.00;3.00;;;;;9.56;52.60;103001.22;5102601;27;45182;-62
2022/02/26 10:54:03;;;;;;;;;2.00;2.00;;;;;9.58;51.35;103003.81;5102100;27;46503;-62
2022/02/26 10:56:38;;;;;;;;;2.25;2.00;;;;;9.62;51.40;103003.69;5102162;27;45357;-63
2022/02/26 10:59:05;;;;;;;;;2.75;2.50;;;;;9.69;50.92;102986.91;5102052;27;45550;-62
2022/02/26 11:01:32;;;;;;;;;4.25;2.25;;;;;9.76;51.01;102995.56;5102270;27;45263;-63
2022/02/26 11:03:58;;;;;;;;;2.00;2.00;;;;;9.82;50.62;102989.31;5102015;27;45277;-63
2022/02/26 11:06:25;;;;;;;;;3.25;3.00;;;;;9.87;50.20;102992.69;5102217;27;45249;-63
2022/02/26 11:08:51;;;;;;;;;3.00;2.00;;;;;9.90;50.16;102990.03;5101775;27;45339;-63
2022/02/26 11:11:19;;;;;;;;;3.00;2.00;;;;;9.92;50.13;102985.59;5100841;27;45255;-63
2022/02/26 11:13:45;;;;;;;;;11.00;3.00;;;;;9.91;49.80;102976.81;5101841;27;46215;-63
2022/02/26 11:16:13;;;;;;;;;5.75;4.00;;;;;9.96;50.54;102976.75;5101574;27;45384;-63